createdAt,value
2023-02-11T00:01:25.212Z,101230.00
2023-02-11T00:03:53.182Z,101230.00
2023-02-11T00:06:20.303Z,101230.00
2023-02-11T00:08:47.450Z,101217.00
2023-02-11T00:11:17.795Z,101214.00
2023-02-11T00:13:46.047Z,101223.00
2023-02-11T00:16:17.630Z,101211.00
2023-02-11T00:18:45.090Z,101209.00
2023-02-11T00:21:20.196Z,101207.00
2023-02-11T00:23:48.232Z,101206.00
2023-02-11T00:26:23.011Z,101208.00
2023-02-11T00:28:51.217Z,101214.00
2023-02-11T00:31:20.905Z,101211.00
2023-02-11T00:33:48.219Z,101214.00
2023-02-11T00:36:20.167Z,101224.00
2023-02-11T00:38:48.371Z,101230.00
2023-02-11T00:41:16.654Z,101228.00
2023-02-11T00:43:44.055Z,101225.00
2023-02-11T00:46:11.490Z,101233.00
2023-02-11T00:48:38.665Z,101228.00
2023-02-11T00:51:06.732Z,101232.00
2023-02-11T00:53:34.626Z,101230.00
2023-02-11T00:56:01.740Z,101231.00
2023-02-11T00:58:29.339Z,101237.00
2023-02-11T01:00:56.870Z,101238.00
2023-02-11T01:03:23.857Z,101232.00
2023-02-11T01:05:51.139Z,101241.00
2023-02-11T01:08:18.156Z,101229.00
2023-02-11T01:10:45.199Z,101231.00
2023-02-11T01:13:12.161Z,101228.00
2023-02-11T01:15:39.042Z,101217.00
2023-02-11T01:18:06.560Z,101217.00
2023-02-11T01:20:33.462Z,101220.00
2023-02-11T01:23:00.238Z,101222.00
2023-02-11T01:25:27.083Z,101210.00
2023-02-11T01:27:53.904Z,101211.00
2023-02-11T01:30:20.805Z,101210.00
2023-02-11T01:32:47.628Z,101205.00
2023-02-11T01:35:14.466Z,101205.00
2023-02-11T01:37:41.923Z,101204.00
2023-02-11T01:40:16.147Z,101199.00
2023-02-11T01:42:43.729Z,101206.00
2023-02-11T01:45:44.602Z,101203.00
2023-02-11T01:48:14.560Z,101205.00
2023-02-11T01:50:45.392Z,101203.00
2023-02-11T01:53:31.331Z,101197.00
2023-02-11T01:56:17.248Z,101187.00
2023-02-11T01:58:47.627Z,101182.00
2023-02-11T02:01:22.549Z,101180.00
2023-02-11T02:03:54.967Z,101184.00
2023-02-11T02:06:48.983Z,101181.00
2023-02-11T02:09:31.005Z,101179.00
2023-02-11T02:11:57.893Z,101171.00
2023-02-11T02:14:24.774Z,101171.00
2023-02-11T02:16:51.587Z,101167.00
2023-02-11T02:20:01.532Z,101167.00
2023-02-11T02:23:11.646Z,101160.00
2023-02-11T02:26:10.818Z,101171.00
2023-02-11T02:29:15.681Z,101151.00
2023-02-11T02:32:23.309Z,101159.00
2023-02-11T02:35:11.760Z,101160.00
2023-02-11T02:37:55.569Z,101144.00
2023-02-11T02:40:31.735Z,101145.00
2023-02-11T02:43:01.265Z,101137.00
2023-02-11T02:45:28.218Z,101137.00
2023-02-11T02:47:55.318Z,101130.00
2023-02-11T02:50:30.351Z,101128.00
2023-02-11T02:53:28.673Z,101129.00
2023-02-11T02:56:12.652Z,101126.00
2023-02-11T02:59:17.671Z,101139.00
2023-02-11T03:02:19.195Z,101133.00
2023-02-11T03:05:08.539Z,101139.00
2023-02-11T03:08:05.498Z,101146.00
2023-02-11T03:10:45.262Z,101145.00
2023-02-11T03:13:17.316Z,101123.00
2023-02-11T03:15:51.266Z,101135.00
2023-02-11T03:18:24.605Z,101150.00
2023-02-11T03:20:54.464Z,101143.00
2023-02-11T03:23:33.201Z,101127.00
2023-02-11T03:26:16.083Z,101134.00
2023-02-11T03:29:03.360Z,101143.00
2023-02-11T03:31:41.254Z,101131.00
2023-02-11T03:34:30.843Z,101133.00
2023-02-11T03:37:06.521Z,101137.00
2023-02-11T03:39:57.307Z,101127.00
2023-02-11T03:42:33.478Z,101136.00
2023-02-11T03:45:15.751Z,101147.00
2023-02-11T03:47:49.985Z,101140.00
2023-02-11T03:50:20.561Z,101145.00
2023-02-11T03:52:50.064Z,101134.00
2023-02-11T03:55:20.534Z,101135.00
2023-02-11T03:57:48.049Z,101134.00
2023-02-11T04:00:15.209Z,101130.00
2023-02-11T04:02:43.447Z,101142.00
2023-02-11T04:05:14.621Z,101130.00
2023-02-11T04:07:41.659Z,101148.00
2023-02-11T04:10:09.321Z,101152.00
2023-02-11T04:12:36.292Z,101153.00
2023-02-11T04:15:03.420Z,101156.00
2023-02-11T04:17:30.280Z,101163.00
2023-02-11T04:19:57.048Z,101154.00
2023-02-11T04:22:23.978Z,101155.00
2023-02-11T04:24:50.882Z,101151.00
2023-02-11T04:27:17.867Z,101158.00
2023-02-11T04:29:44.772Z,101150.00
2023-02-11T04:32:12.442Z,101140.00
2023-02-11T04:34:39.774Z,101126.00
2023-02-11T04:37:06.886Z,101123.00
2023-02-11T04:39:33.993Z,101111.00
2023-02-11T04:42:01.073Z,101120.00
2023-02-11T04:44:27.983Z,101134.00
2023-02-11T04:46:54.822Z,101125.00
2023-02-11T04:49:21.705Z,101130.00
2023-02-11T04:51:49.669Z,101145.00
2023-02-11T04:54:17.331Z,101136.00
2023-02-11T04:56:44.264Z,101143.00
2023-02-11T04:59:12.683Z,101145.00
2023-02-11T05:01:40.646Z,101155.00
2023-02-11T05:04:07.816Z,101159.00
2023-02-11T05:06:35.018Z,101157.00
2023-02-11T05:09:02.073Z,101158.00
2023-02-11T05:11:29.699Z,101150.00
2023-02-11T05:13:56.491Z,101150.00
2023-02-11T05:16:23.764Z,101146.00
2023-02-11T05:18:52.512Z,101144.00
2023-02-11T05:21:19.835Z,101140.00
2023-02-11T05:23:47.381Z,101132.00
2023-02-11T05:26:14.847Z,101138.00
2023-02-11T05:28:42.661Z,101136.00
2023-02-11T05:31:10.675Z,101140.00
2023-02-11T05:33:38.059Z,101124.00
2023-02-11T05:36:10.590Z,101118.00
2023-02-11T05:38:38.360Z,101121.00
2023-02-11T05:41:06.864Z,101107.00
2023-02-11T05:43:35.415Z,101113.00
2023-02-11T05:46:03.436Z,101122.00
2023-02-11T05:48:31.424Z,101119.00
2023-02-11T05:50:58.506Z,101109.00
2023-02-11T05:53:25.598Z,101111.00
2023-02-11T05:55:52.689Z,101110.00
2023-02-11T05:58:19.722Z,101109.00
2023-02-11T06:00:46.647Z,101106.00
2023-02-11T06:03:13.505Z,101104.00
2023-02-11T06:05:40.426Z,101085.00
2023-02-11T06:08:07.228Z,101099.00
2023-02-11T06:10:34.108Z,101106.00
2023-02-11T06:13:02.354Z,101088.00
2023-02-11T06:15:29.295Z,101088.00
2023-02-11T06:17:56.512Z,101091.00
2023-02-11T06:20:23.374Z,101095.00
2023-02-11T06:22:50.264Z,101110.00
2023-02-11T06:25:17.378Z,101101.00
2023-02-11T06:27:44.279Z,101084.00
2023-02-11T06:30:12.132Z,101071.00
2023-02-11T06:32:44.464Z,101068.00
2023-02-11T06:35:13.787Z,101054.00
2023-02-11T06:37:41.854Z,101059.00
2023-02-11T06:40:09.485Z,101049.00
2023-02-11T06:42:38.703Z,101053.00
2023-02-11T06:45:08.973Z,101057.00
2023-02-11T06:47:36.098Z,101071.00
2023-02-11T06:50:03.536Z,101086.00
2023-02-11T06:52:30.381Z,101082.00
2023-02-11T06:54:57.143Z,101079.00
2023-02-11T06:57:24.339Z,101102.00
2023-02-11T06:59:51.952Z,101129.00
2023-02-11T07:02:20.894Z,101123.00
2023-02-11T07:04:48.240Z,101144.00
2023-02-11T07:07:15.759Z,101155.00
2023-02-11T07:09:43.020Z,101157.00
2023-02-11T07:12:10.961Z,101148.00
2023-02-11T07:14:38.713Z,101147.00
2023-02-11T07:17:05.871Z,101148.00
2023-02-11T07:19:33.053Z,101143.00
2023-02-11T07:22:00.263Z,101136.00
2023-02-11T07:24:29.532Z,101136.00
2023-02-11T07:26:56.559Z,101130.00
2023-02-11T07:29:33.891Z,101117.00
2023-02-11T07:32:08.465Z,101123.00
2023-02-11T07:34:38.194Z,101116.00
2023-02-11T07:37:45.174Z,101122.00
2023-02-11T07:40:12.739Z,101117.00
2023-02-11T07:42:44.612Z,101124.00
2023-02-11T07:45:20.057Z,101128.00
2023-02-11T07:47:50.935Z,101135.00
2023-02-11T07:50:18.270Z,101137.00
2023-02-11T07:52:46.795Z,101132.00
2023-02-11T07:55:17.688Z,101134.00
2023-02-11T07:57:52.436Z,101132.00
2023-02-11T08:00:29.949Z,101128.00
2023-02-11T08:03:13.111Z,101123.00
2023-02-11T08:10:12.883Z,101135.00
2023-02-11T08:12:42.817Z,101138.00
2023-02-11T08:16:11.977Z,101136.00
2023-02-11T08:18:44.761Z,101124.00
2023-02-11T08:21:25.670Z,101125.00
2023-02-11T08:23:53.447Z,101132.00
2023-02-11T08:26:28.371Z,101136.00
2023-02-11T08:28:57.434Z,101137.00
2023-02-11T08:31:30.899Z,101144.00
2023-02-11T08:34:02.336Z,101139.00
2023-02-11T08:36:34.225Z,101138.00
2023-02-11T08:39:22.684Z,101128.00
2023-02-11T08:41:53.599Z,101138.00
2023-02-11T08:44:22.389Z,101140.00
2023-02-11T08:46:50.891Z,101148.00
2023-02-11T08:49:18.438Z,101147.00
2023-02-11T08:51:46.016Z,101136.00
2023-02-11T08:54:14.427Z,101143.00
2023-02-11T08:56:41.559Z,101138.00
2023-02-11T08:59:11.073Z,101154.00
2023-02-11T09:01:38.087Z,101150.00
2023-02-11T09:04:05.227Z,101144.00
2023-02-11T09:06:32.682Z,101150.00
2023-02-11T09:09:00.037Z,101151.00
2023-02-11T09:11:32.570Z,101152.00
2023-02-11T09:14:00.571Z,101147.00
2023-02-11T09:16:30.994Z,101145.00
2023-02-11T09:19:00.349Z,101143.00
2023-02-11T09:21:28.500Z,101147.00
2023-02-11T09:23:55.769Z,101153.00
2023-02-11T09:26:32.812Z,101145.00
2023-02-11T09:29:00.882Z,101144.00
2023-02-11T09:31:31.161Z,101144.00
2023-02-11T09:34:05.484Z,101131.00
2023-02-11T09:36:37.547Z,101134.00
2023-02-11T09:39:09.032Z,101137.00
2023-02-11T09:42:24.734Z,101143.00
2023-02-11T09:44:52.653Z,101138.00
2023-02-11T09:47:34.075Z,101132.00
2023-02-11T09:50:12.380Z,101127.00
2023-02-11T09:53:02.410Z,101121.00
2023-02-11T09:55:39.857Z,101130.00
2023-02-11T09:58:29.624Z,101131.00
2023-02-11T10:01:21.895Z,101131.00
2023-02-11T10:04:23.465Z,101129.00
2023-02-11T10:07:00.450Z,101121.00
2023-02-11T10:10:14.786Z,101115.00
2023-02-11T10:13:11.312Z,101121.00
2023-02-11T10:16:19.634Z,101120.00
2023-02-11T10:19:51.463Z,101123.00
2023-02-11T10:22:40.412Z,101117.00
2023-02-11T10:25:21.022Z,101115.00
2023-02-11T10:27:49.575Z,101111.00
2023-02-11T10:30:38.293Z,101107.00
2023-02-11T10:33:36.821Z,101115.00
2023-02-11T10:36:05.047Z,101113.00
2023-02-11T10:38:33.817Z,101113.00
2023-02-11T10:41:00.850Z,101117.00
2023-02-11T10:43:31.907Z,101108.00
2023-02-11T10:46:02.415Z,101107.00
2023-02-11T10:48:50.545Z,101106.00
2023-02-11T10:51:24.396Z,101101.00
2023-02-11T10:54:19.465Z,101099.00
2023-02-11T10:56:52.100Z,101093.00
2023-02-11T10:59:40.206Z,101095.00
2023-02-11T11:02:34.465Z,101089.00
2023-02-11T11:05:16.604Z,101084.00
2023-02-11T11:07:59.057Z,101073.00
2023-02-11T11:10:47.776Z,101068.00
2023-02-11T11:13:37.995Z,101059.00
2023-02-11T11:16:13.424Z,101055.00
2023-02-11T11:18:43.835Z,101058.00
2023-02-11T11:21:49.307Z,101039.00
2023-02-11T11:24:31.759Z,101048.00
2023-02-11T11:27:02.964Z,101030.00
2023-02-11T11:29:45.680Z,101021.00
2023-02-11T11:32:22.198Z,101017.00
2023-02-11T11:34:56.497Z,101006.00
2023-02-11T11:37:36.269Z,101003.00
2023-02-11T11:40:25.566Z,101012.00
2023-02-11T11:43:22.626Z,101008.00
2023-02-11T11:45:58.685Z,101007.00
2023-02-11T11:48:49.815Z,101010.00
2023-02-11T11:51:17.302Z,100996.00
2023-02-11T11:53:59.664Z,100999.00
2023-02-11T11:56:35.443Z,100989.00
2023-02-11T11:59:14.011Z,100989.00
2023-02-11T12:02:06.895Z,100989.00
2023-02-11T12:05:06.029Z,100975.00
2023-02-11T12:08:04.850Z,100980.00
2023-02-11T12:10:40.057Z,100974.00
2023-02-11T12:14:20.474Z,100976.00
2023-02-11T12:17:18.862Z,100983.00
2023-02-11T12:20:18.086Z,100982.00
2023-02-11T12:23:06.685Z,100978.00
2023-02-11T12:25:46.277Z,100978.00
2023-02-11T12:28:28.463Z,100982.00
2023-02-11T12:31:24.054Z,100980.00
2023-02-11T12:34:16.013Z,100977.00
2023-02-11T12:36:54.608Z,100975.00
2023-02-11T12:39:42.634Z,100981.00
2023-02-11T12:42:55.704Z,100984.00
2023-02-11T12:45:38.402Z,100985.00
2023-02-11T12:48:49.829Z,100983.00
2023-02-11T12:51:57.877Z,100976.00
2023-02-11T12:54:33.120Z,100968.00
2023-02-11T12:57:31.204Z,100980.00
2023-02-11T13:00:18.986Z,100962.00
2023-02-11T13:02:56.012Z,100961.00
2023-02-11T13:05:37.456Z,100951.00
2023-02-11T13:08:25.833Z,100956.00
2023-02-11T13:11:02.840Z,100950.00
2023-02-11T13:13:46.317Z,100947.00
2023-02-11T13:16:41.480Z,100942.00
2023-02-11T13:19:44.038Z,100944.00
2023-02-11T13:22:22.654Z,100940.00
2023-02-11T13:25:17.251Z,100939.00
2023-02-11T13:28:20.573Z,100935.00
2023-02-11T13:30:52.291Z,100951.00
2023-02-11T13:33:32.795Z,100936.00
2023-02-11T13:35:59.570Z,100935.00
2023-02-11T13:38:30.352Z,100934.00
2023-02-11T13:41:24.724Z,100929.00
2023-02-11T13:44:23.368Z,100931.00
2023-02-11T13:46:57.228Z,100927.00
2023-02-11T13:49:54.328Z,100919.00
2023-02-11T13:52:35.037Z,100930.00
2023-02-11T13:55:21.589Z,100918.00
2023-02-11T13:58:08.367Z,100919.00
2023-02-11T14:00:35.275Z,100922.00
2023-02-11T14:03:29.754Z,100913.00
2023-02-11T14:06:26.944Z,100918.00
2023-02-11T14:09:09.359Z,100917.00
2023-02-11T14:12:34.974Z,100921.00
2023-02-11T14:15:19.707Z,100909.00
2023-02-11T14:17:46.759Z,100914.00
2023-02-11T14:20:41.931Z,100919.00
2023-02-11T14:23:25.672Z,100908.00
2023-02-11T14:26:21.247Z,100921.00
2023-02-11T14:29:35.889Z,100912.00
2023-02-11T14:32:28.964Z,100908.00
2023-02-11T14:35:33.638Z,100911.00
2023-02-11T14:38:38.758Z,100916.00
2023-02-11T14:41:22.107Z,100902.00
2023-02-11T14:44:01.063Z,100908.00
2023-02-11T14:46:35.826Z,100898.00
2023-02-11T14:49:05.571Z,100898.00
2023-02-11T14:51:39.788Z,100902.00
2023-02-11T14:54:16.770Z,100903.00
2023-02-11T14:56:44.653Z,100895.00
2023-02-11T14:59:21.935Z,100904.00
2023-02-11T15:01:56.310Z,100901.00
2023-02-11T15:04:27.717Z,100899.00
2023-02-11T15:06:56.731Z,100895.00
2023-02-11T15:09:48.450Z,100899.00
2023-02-11T15:12:27.103Z,100899.00
2023-02-11T15:14:59.811Z,100899.00
2023-02-11T15:17:31.699Z,100904.00
2023-02-11T15:20:01.993Z,100899.00
2023-02-11T15:22:36.477Z,100899.00
2023-02-11T15:25:14.883Z,100903.00
2023-02-11T15:27:48.560Z,100899.00
2023-02-11T15:30:21.442Z,100902.00
2023-02-11T15:33:00.376Z,100894.00
2023-02-11T15:35:32.380Z,100916.00
2023-02-11T15:37:59.957Z,100919.00
2023-02-11T15:40:33.002Z,100913.00
2023-02-11T15:43:04.070Z,100911.00
2023-02-11T15:45:51.080Z,100917.00
2023-02-11T15:48:37.240Z,100923.00
2023-02-11T15:51:11.862Z,100923.00
2023-02-11T15:53:43.217Z,100914.00
2023-02-11T15:56:26.754Z,100920.00
2023-02-11T15:58:57.163Z,100926.00
2023-02-11T16:01:34.862Z,100925.00
2023-02-11T16:04:03.864Z,100929.00
2023-02-11T16:06:42.550Z,100934.00
2023-02-11T16:09:10.112Z,100931.00
2023-02-11T16:11:57.986Z,100930.00
2023-02-11T16:14:27.598Z,100940.00
2023-02-11T16:17:02.132Z,100933.00
2023-02-11T16:19:30.825Z,100941.00
2023-02-11T16:22:02.297Z,100937.00
2023-02-11T16:24:34.521Z,100944.00
2023-02-11T16:27:16.546Z,100946.00
2023-02-11T16:29:48.194Z,100950.00
2023-02-11T16:32:28.527Z,100959.00
2023-02-11T16:34:58.489Z,100953.00
2023-02-11T16:37:25.905Z,100962.00
2023-02-11T16:39:56.882Z,100957.00
2023-02-11T16:42:24.514Z,100959.00
2023-02-11T16:44:51.418Z,100960.00
2023-02-11T16:47:28.752Z,100969.00
2023-02-11T16:49:56.803Z,100970.00
2023-02-11T16:52:24.573Z,100970.00
2023-02-11T16:54:51.661Z,100975.00
2023-02-11T16:57:25.709Z,100978.00
2023-02-11T16:59:53.320Z,100976.00
2023-02-11T17:02:36.987Z,100980.00
2023-02-11T17:05:18.316Z,100985.00
2023-02-11T17:07:45.236Z,100986.00
2023-02-11T17:10:22.252Z,100994.00
2023-02-11T17:12:50.957Z,100994.00
2023-02-11T17:15:17.905Z,100997.00
2023-02-11T17:17:45.837Z,100999.00
2023-02-11T17:20:14.253Z,100999.00
2023-02-11T17:22:41.608Z,100999.00
2023-02-11T17:25:08.916Z,101002.00
2023-02-11T17:27:35.826Z,101004.00
2023-02-11T17:30:02.710Z,101001.00
2023-02-11T17:32:29.516Z,101008.00
2023-02-11T17:34:56.342Z,101006.00
2023-02-11T17:37:23.122Z,101003.00
2023-02-11T17:39:50.937Z,101005.00
2023-02-11T17:42:19.228Z,101002.00
2023-02-11T17:44:46.390Z,101002.00
2023-02-11T17:47:13.700Z,101009.00
2023-02-11T17:49:41.272Z,101016.00
2023-02-11T17:52:08.356Z,101011.00
2023-02-11T17:54:35.343Z,101019.00
2023-02-11T17:57:02.272Z,101023.00
2023-02-11T17:59:35.200Z,101014.00
2023-02-11T18:02:03.547Z,101009.00
2023-02-11T18:04:30.781Z,101017.00
2023-02-11T18:06:57.854Z,101010.00
2023-02-11T18:09:26.100Z,101018.00
2023-02-11T18:11:53.241Z,101026.00
2023-02-11T18:14:21.927Z,101023.00
2023-02-11T18:16:53.062Z,101025.00
2023-02-11T18:19:20.213Z,101022.00
2023-02-11T18:21:48.944Z,101024.00
2023-02-11T18:24:17.012Z,101030.00
2023-02-11T18:26:44.105Z,101028.00
2023-02-11T18:29:11.002Z,101035.00
2023-02-11T18:31:38.004Z,101029.00
2023-02-11T18:34:08.193Z,101034.00
2023-02-11T18:36:35.691Z,101037.00
2023-02-11T18:39:03.467Z,101040.00
2023-02-11T18:41:30.358Z,101045.00
2023-02-11T18:43:58.685Z,101050.00
2023-02-11T18:46:25.760Z,101059.00
2023-02-11T18:48:55.984Z,101061.00
2023-02-11T18:51:23.508Z,101053.00
2023-02-11T18:53:50.394Z,101063.00
2023-02-11T18:56:21.136Z,101054.00
2023-02-11T18:58:49.415Z,101066.00
2023-02-11T19:01:24.213Z,101061.00
2023-02-11T19:03:51.556Z,101050.00
2023-02-11T19:06:26.021Z,101057.00
2023-02-11T19:09:00.661Z,101062.00
2023-02-11T19:11:50.309Z,101067.00
2023-02-11T19:14:28.511Z,101073.00
2023-02-11T19:16:59.609Z,101071.00
2023-02-11T19:19:30.580Z,101070.00
2023-02-11T19:22:00.105Z,101077.00
2023-02-11T19:24:29.047Z,101075.00
2023-02-11T19:26:59.517Z,101089.00
2023-02-11T19:29:26.929Z,101081.00
2023-02-11T19:31:54.640Z,101078.00
2023-02-11T19:34:22.146Z,101086.00
2023-02-11T19:36:50.336Z,101084.00
2023-02-11T19:39:18.416Z,101080.00
2023-02-11T19:41:45.344Z,101089.00
2023-02-11T19:44:13.808Z,101086.00
2023-02-11T19:46:41.135Z,101089.00
2023-02-11T19:49:09.856Z,101082.00
2023-02-11T19:51:39.187Z,101076.00
2023-02-11T19:54:07.468Z,101071.00
2023-02-11T19:56:34.843Z,101083.00
2023-02-11T19:59:05.049Z,101090.00
2023-02-11T20:01:31.931Z,101077.00
2023-02-11T20:03:58.841Z,101068.00
2023-02-11T20:06:29.903Z,101075.00
2023-02-11T20:09:00.127Z,101070.00
2023-02-11T20:11:30.807Z,101067.00
2023-02-11T20:13:58.422Z,101069.00
2023-02-11T20:16:44.562Z,101061.00
2023-02-11T20:19:17.667Z,101052.00
2023-02-11T20:21:47.236Z,101056.00
2023-02-11T20:24:15.948Z,101055.00
2023-02-11T20:26:42.946Z,101053.00
2023-02-11T20:29:10.110Z,101057.00
2023-02-11T20:31:37.673Z,101058.00
2023-02-11T20:34:04.500Z,101067.00
2023-02-11T20:36:35.636Z,101063.00
2023-02-11T20:39:05.304Z,101065.00
2023-02-11T20:41:35.519Z,101071.00
2023-02-11T20:44:06.252Z,101067.00
2023-02-11T20:46:34.832Z,101067.00
2023-02-11T20:49:03.293Z,101074.00
2023-02-11T20:51:34.211Z,101069.00
2023-02-11T20:54:01.582Z,101076.00
2023-02-11T20:56:33.338Z,101069.00
2023-02-11T20:59:02.373Z,101067.00
2023-02-11T21:01:34.179Z,101077.00
2023-02-11T21:04:05.935Z,101084.00
2023-02-11T21:06:37.207Z,101089.00
2023-02-11T21:09:06.353Z,101081.00
2023-02-11T21:11:33.663Z,101083.00
2023-02-11T21:14:00.837Z,101088.00
2023-02-11T21:16:28.578Z,101087.00
2023-02-11T21:18:55.831Z,101082.00
2023-02-11T21:21:23.997Z,101083.00
2023-02-11T21:23:50.857Z,101083.00
2023-02-11T21:26:17.865Z,101077.00
2023-02-11T21:28:45.114Z,101086.00
2023-02-11T21:31:23.162Z,101090.00
2023-02-11T21:33:51.424Z,101091.00
2023-02-11T21:36:18.578Z,101087.00
2023-02-11T21:38:45.338Z,101095.00
2023-02-11T21:41:12.397Z,101099.00
2023-02-11T21:43:39.265Z,101100.00
2023-02-11T21:46:14.225Z,101115.00
2023-02-11T21:48:41.964Z,101107.00
2023-02-11T21:51:13.971Z,101115.00
2023-02-11T21:53:40.902Z,101118.00
2023-02-11T21:56:15.537Z,101115.00
2023-02-11T21:58:42.924Z,101101.00
2023-02-11T22:01:17.346Z,101107.00
2023-02-11T22:03:45.558Z,101101.00
2023-02-11T22:06:17.428Z,101100.00
2023-02-11T22:08:44.406Z,101099.00
2023-02-11T22:11:13.520Z,101103.00
2023-02-11T22:13:41.657Z,101103.00
2023-02-11T22:16:16.073Z,101106.00
2023-02-11T22:18:46.590Z,101100.00
2023-02-11T22:21:20.582Z,101102.00
2023-02-11T22:23:47.636Z,101092.00
2023-02-11T22:26:25.849Z,101107.00
2023-02-11T22:28:53.650Z,101107.00
2023-02-11T22:31:31.943Z,101110.00
2023-02-11T22:34:00.749Z,101117.00
2023-02-11T22:36:31.920Z,101105.00
2023-02-11T22:39:12.064Z,101115.00
2023-02-11T22:41:41.483Z,101119.00
2023-02-11T22:44:09.113Z,101111.00
2023-02-11T22:46:37.059Z,101118.00
2023-02-11T22:49:05.660Z,101124.00
2023-02-11T22:51:33.518Z,101119.00
2023-02-11T22:54:06.625Z,101114.00
2023-02-11T22:56:35.194Z,101112.00
2023-02-11T22:59:07.752Z,101120.00
2023-02-11T23:01:34.899Z,101113.00
2023-02-11T23:04:06.025Z,101117.00
2023-02-11T23:06:32.978Z,101107.00
2023-02-11T23:09:00.321Z,101124.00
2023-02-11T23:11:31.014Z,101127.00
2023-02-11T23:13:59.039Z,101135.00
2023-02-11T23:16:31.475Z,101130.00
2023-02-11T23:19:06.134Z,101133.00
2023-02-11T23:21:37.068Z,101134.00
2023-02-11T23:24:15.594Z,101130.00
2023-02-11T23:26:44.136Z,101131.00
2023-02-11T23:29:12.100Z,101121.00
2023-02-11T23:31:43.410Z,101114.00
2023-02-11T23:34:11.100Z,101126.00
2023-02-11T23:36:38.340Z,101137.00
2023-02-11T23:39:05.441Z,101136.00
2023-02-11T23:41:32.406Z,101124.00
2023-02-11T23:43:59.460Z,101118.00
2023-02-11T23:46:27.550Z,101123.00
2023-02-11T23:48:54.896Z,101127.00
2023-02-11T23:51:22.726Z,101111.00
2023-02-11T23:53:50.747Z,101113.00
2023-02-11T23:56:21.437Z,101116.00
2023-02-11T23:58:55.262Z,101112.00
